Terminal Aerodrome Forecast
Issued by NWS

Home | Current Version | Previous Version | Text Only | Print | Product List | Glossary On
Versions: 1 2 3 4 5 6 7 8 9 10 11 12 13 14 15
000
FTUS44 KEPZ 010700 AAA
TAFDMN
TAF AMD
KDMN 010722Z 0107/0206 15008KT P6SM VCSH SCT060 BKN100 BKN220
      TEMPO 0107/0109 -SHRA BKN050
     FM011200 VRB04KT P6SM SCT030 BKN100 OVC220
     FM011800 11007KT P6SM SCT040 BKN120 OVC220
     FM020100 10008KT P6SM VCSH BKN050 BKN110 OVC220=

USA.gov is the U.S. government's official web portal to all federal, state and local government web resources and services.